Time;durP1;ratioP1;P1;durP2;ratioP2;P2;SDS_P1;SDS_P2;PMS_P1;PMS_P2;Temp;Humidity;BMP_temperature;BMP_pressure;BME280_temperature;BME280_humidity;BME280_pressure;Samples;Min_cycle;Max_cycle;Signal;HPM_P1;HPM_P2
2022/11/19 00:01:07;;;;;;;25.60;14.40;;;5.10;99.90;;;;;;5029775;28;20033;-73
2022/11/19 00:03:34;;;;;;;26.63;14.07;;;5.10;99.90;;;;;;5032378;28;20521;-73
2022/11/19 00:06:11;;;;;;;24.73;14.18;;;5.10;99.90;;;;;;5031921;28;20032;-74
2022/11/19 00:08:37;;;;;;;25.80;14.02;;;5.10;99.90;;;;;;5031124;28;20064;-74
2022/11/19 00:11:05;;;;;;;23.95;14.63;;;5.10;99.90;;;;;;5031432;28;20057;-73
2022/11/19 00:13:31;;;;;;;25.45;14.45;;;5.00;99.90;;;;;;5015987;28;20092;-73
2022/11/19 00:16:11;;;;;;;24.80;14.05;;;5.00;99.90;;;;;;5035113;28;20042;-73
2022/11/19 00:18:37;;;;;;;22.20;13.60;;;5.00;99.90;;;;;;5035225;28;20022;-74
2022/11/19 00:21:08;;;;;;;21.90;13.70;;;4.90;99.90;;;;;;5017613;28;20060;-74
2022/11/19 00:23:34;;;;;;;24.75;14.38;;;5.00;99.90;;;;;;5026995;28;20483;-73
2022/11/19 00:26:07;;;;;;;28.27;14.65;;;5.00;99.90;;;;;;5032213;28;20029;-74
2022/11/19 00:28:33;;;;;;;23.75;14.30;;;5.00;99.90;;;;;;5033065;28;20100;-73
2022/11/19 00:31:07;;;;;;;22.60;13.48;;;4.90;99.90;;;;;;5033972;28;20098;-73
2022/11/19 00:33:33;;;;;;;23.00;13.52;;;4.90;99.90;;;;;;5014832;28;20059;-74
2022/11/19 00:35:59;;;;;;;25.80;13.15;;;4.90;99.90;;;;;;5031820;28;20100;-73
2022/11/19 00:38:26;;;;;;;23.48;13.32;;;4.90;99.90;;;;;;5027906;28;20376;-74
2022/11/19 00:40:51;;;;;;;23.15;13.48;;;4.90;99.90;;;;;;5023059;28;20041;-74
2022/11/19 00:46:01;;;;;;;20.25;12.30;;;4.90;99.90;;;;;;5030678;28;20036;-74
2022/11/19 00:48:27;;;;;;;23.38;12.70;;;4.90;99.90;;;;;;5018896;28;20414;-73
2022/11/19 00:50:52;;;;;;;23.38;13.85;;;4.80;99.90;;;;;;5031132;28;20032;-73
2022/11/19 00:53:18;;;;;;;20.60;12.32;;;4.80;99.90;;;;;;5031273;28;20038;-73
2022/11/19 00:55:43;;;;;;;24.70;13.05;;;4.70;99.90;;;;;;5031619;28;20048;-74
2022/11/19 00:58:09;;;;;;;26.92;14.05;;;4.70;99.90;;;;;;5030629;28;20029;-73
2022/11/19 01:00:34;;;;;;;25.52;14.13;;;4.70;99.90;;;;;;5025496;28;20027;-72
2022/11/19 01:03:00;;;;;;;26.85;15.10;;;4.70;99.90;;;;;;5033562;28;20104;-73
2022/11/19 01:05:25;;;;;;;22.30;13.45;;;4.60;99.90;;;;;;5034286;28;20033;-73
2022/11/19 01:07:52;;;;;;;22.65;13.52;;;4.60;99.90;;;;;;5040055;28;20026;-73
2022/11/19 01:10:17;;;;;;;23.23;13.68;;;4.60;99.90;;;;;;5034264;28;20034;-73
2022/11/19 01:15:27;;;;;;;26.35;12.85;;;4.50;99.90;;;;;;5031953;28;20040;-73
2022/11/19 01:17:53;;;;;;;25.65;13.77;;;4.50;99.90;;;;;;5032003;28;20064;-74
2022/11/19 01:20:18;;;;;;;25.75;14.77;;;4.50;99.90;;;;;;5035221;28;20471;-73
2022/11/19 01:22:45;;;;;;;26.75;14.13;;;4.50;99.90;;;;;;5035404;28;20057;-73
2022/11/19 01:25:11;;;;;;;24.02;14.27;;;4.50;99.90;;;;;;5034153;28;20501;-74
2022/11/19 01:27:36;;;;;;;22.52;15.05;;;4.40;99.90;;;;;;5039996;28;20049;-74
2022/11/19 01:30:03;;;;;;;24.23;15.27;;;4.40;99.90;;;;;;5034722;28;20061;-73
2022/11/19 01:32:29;;;;;;;23.85;13.70;;;4.40;99.90;;;;;;5033513;28;20040;-74
2022/11/19 01:34:54;;;;;;;29.20;15.43;;;4.40;99.90;;;;;;5035299;28;20033;-73
2022/11/19 01:37:20;;;;;;;28.70;14.95;;;4.30;99.90;;;;;;5032810;28;20117;-74
2022/11/19 01:39:45;;;;;;;25.95;14.40;;;4.30;99.90;;;;;;5032202;28;20040;-73
2022/11/19 01:42:48;;;;;;;21.77;13.13;;;4.30;99.90;;;;;;5033403;28;20064;-73
2022/11/19 01:45:33;;;;;;;26.85;14.82;;;4.30;99.90;;;;;;5034507;28;20485;-73
2022/11/19 01:48:04;;;;;;;23.75;14.35;;;4.20;99.90;;;;;;5019714;28;20030;-73
2022/11/19 01:50:33;;;;;;;25.15;13.68;;;4.20;99.90;;;;;;5033758;28;20065;-74
2022/11/19 01:52:59;;;;;;;30.52;15.52;;;4.20;99.90;;;;;;5022570;28;20026;-73
2022/11/19 01:55:26;;;;;;;26.65;14.20;;;4.20;99.90;;;;;;5030692;28;20076;-73
2022/11/19 01:58:00;;;;;;;27.80;14.90;;;4.20;99.90;;;;;;5035455;28;20537;-73
2022/11/19 02:00:26;;;;;;;28.13;15.30;;;4.20;99.90;;;;;;5033609;28;20043;-73
2022/11/19 02:02:52;;;;;;;25.88;14.45;;;4.20;99.90;;;;;;5015933;28;20095;-73
2022/11/19 02:05:18;;;;;;;29.17;16.48;;;4.20;99.90;;;;;;5032911;28;20387;-73
2022/11/19 02:07:51;;;;;;;25.60;15.25;;;4.20;99.90;;;;;;5031004;28;20051;-75
2022/11/19 02:10:17;;;;;;;30.50;15.88;;;4.10;99.90;;;;;;5016139;28;20021;-73
2022/11/19 02:13:01;;;;;;;26.13;14.68;;;4.10;99.90;;;;;;5034830;28;20033;-74
2022/11/19 02:15:49;;;;;;;25.17;15.15;;;4.00;99.90;;;;;;5034335;28;20033;-74
2022/11/19 02:18:24;;;;;;;24.75;13.57;;;4.00;99.90;;;;;;5022644;28;20125;-74
2022/11/19 02:21:02;;;;;;;29.30;16.00;;;4.00;99.90;;;;;;5029826;28;20033;-73
2022/11/19 02:24:08;;;;;;;29.63;15.55;;;4.00;99.90;;;;;;5004661;28;20065;-74
2022/11/19 02:27:07;;;;;;;27.08;15.48;;;4.00;99.90;;;;;;5032426;28;20081;-74
2022/11/19 02:30:01;;;;;;;27.92;16.58;;;4.00;99.90;;;;;;5029806;28;20029;-74
2022/11/19 02:32:44;;;;;;;29.17;15.90;;;4.00;99.90;;;;;;5027599;28;20176;-74
2022/11/19 02:35:17;;;;;;;28.00;15.38;;;4.00;99.90;;;;;;5012191;28;20080;-74
2022/11/19 02:38:03;;;;;;;26.20;15.00;;;4.00;99.90;;;;;;5040092;28;20071;-74
2022/11/19 02:40:37;;;;;;;31.83;18.00;;;4.00;99.90;;;;;;5030161;28;20116;-73
2022/11/19 02:43:37;;;;;;;30.15;16.70;;;3.90;99.90;;;;;;5034044;28;20547;-74
2022/11/19 02:46:11;;;;;;;32.40;17.95;;;3.90;99.90;;;;;;5010184;28;20037;-73
2022/11/19 02:48:40;;;;;;;35.83;18.35;;;3.90;99.90;;;;;;5031059;28;21015;-74
2022/11/19 02:51:08;;;;;;;29.20;17.73;;;3.80;99.90;;;;;;5024026;28;20026;-74
2022/11/19 02:53:34;;;;;;;29.45;16.88;;;3.70;99.90;;;;;;5036008;28;20380;-74
2022/11/19 02:56:11;;;;;;;31.70;17.58;;;3.70;99.90;;;;;;5054009;28;20051;-74
2022/11/19 03:04:31;;;;;;;30.85;17.70;;;3.70;99.90;;;;;;5035797;28;20043;-74
2022/11/19 03:07:18;;;;;;;34.20;19.63;;;3.70;99.90;;;;;;5027333;28;20076;-74
2022/11/19 03:09:50;;;;;;;38.13;21.23;;;3.60;99.90;;;;;;5017961;28;20016;-74
2022/11/19 03:18:56;;;;;;;34.05;19.55;;;3.50;99.90;;;;;;4969986;28;20123;-74
2022/11/19 03:21:32;;;;;;;34.20;18.27;;;3.50;99.90;;;;;;5021653;28;20037;-74
2022/11/19 03:24:02;;;;;;;38.30;21.70;;;3.50;99.90;;;;;;5033981;28;20127;-74
2022/11/19 03:26:35;;;;;;;38.67;21.05;;;3.50;99.90;;;;;;5031893;28;20390;-74
2022/11/19 03:29:04;;;;;;;39.20;21.95;;;3.50;99.90;;;;;;5040925;28;20025;-74
2022/11/19 03:31:33;;;;;;;29.77;16.50;;;3.50;99.90;;;;;;5032071;28;20071;-74
2022/11/19 03:34:02;;;;;;;40.33;22.40;;;3.50;99.90;;;;;;5028698;28;20021;-74
2022/11/19 03:36:36;;;;;;;33.28;19.15;;;3.50;99.90;;;;;;5029939;28;20030;-74
2022/11/19 03:39:08;;;;;;;38.78;21.70;;;3.40;99.90;;;;;;5029419;28;20025;-74
2022/11/19 03:41:36;;;;;;;39.85;22.65;;;3.40;99.90;;;;;;5037670;28;20029;-74
2022/11/19 03:44:17;;;;;;;38.80;21.63;;;3.40;99.90;;;;;;5029554;28;20038;-74
2022/11/19 03:46:44;;;;;;;37.33;21.00;;;3.40;99.90;;;;;;5031746;28;20175;-73
2022/11/19 03:49:12;;;;;;;30.73;17.98;;;3.30;99.90;;;;;;5030397;28;20048;-74
2022/11/19 03:51:45;;;;;;;33.08;19.30;;;3.30;99.90;;;;;;5052455;28;20397;-73
2022/11/19 03:54:11;;;;;;;38.60;22.70;;;3.30;99.90;;;;;;5040960;28;20021;-74
2022/11/19 03:56:39;;;;;;;37.08;21.40;;;3.30;99.90;;;;;;5032769;28;20048;-74
2022/11/19 03:59:05;;;;;;;38.53;21.95;;;3.30;99.90;;;;;;5032709;28;20387;-74
2022/11/19 04:01:32;;;;;;;37.33;21.85;;;3.30;99.90;;;;;;5033279;28;20483;-74
2022/11/19 04:06:42;;;;;;;34.80;19.90;;;3.30;99.90;;;;;;5030863;28;20388;-74
2022/11/19 04:09:08;;;;;;;36.75;22.27;;;3.20;99.90;;;;;;5030612;28;20025;-74
2022/11/19 04:11:33;;;;;;;37.72;21.65;;;3.20;99.90;;;;;;5032529;28;20029;-74
2022/11/19 04:13:59;;;;;;;37.95;22.08;;;3.20;99.90;;;;;;5036217;28;20032;-74
2022/11/19 04:16:24;;;;;;;41.97;24.42;;;3.20;99.90;;;;;;5038371;28;20031;-74
2022/11/19 04:18:50;;;;;;;37.42;20.73;;;3.20;99.90;;;;;;5014380;28;20029;-73
2022/11/19 04:21:15;;;;;;;38.05;21.88;;;3.20;99.90;;;;;;5032721;28;20081;-73
2022/11/19 04:23:41;;;;;;;36.10;21.38;;;3.20;99.90;;;;;;5031846;28;20506;-73
2022/11/19 04:26:06;;;;;;;38.95;22.45;;;3.20;99.90;;;;;;5032046;28;20029;-75
2022/11/19 04:28:32;;;;;;;42.63;23.20;;;3.20;99.90;;;;;;5046369;28;20029;-74
2022/11/19 04:30:57;;;;;;;36.65;21.38;;;3.20;99.90;;;;;;5025391;28;20232;-74
2022/11/19 04:33:23;;;;;;;36.38;20.95;;;3.20;99.90;;;;;;5032814;28;20045;-74
2022/11/19 04:35:48;;;;;;;37.20;21.60;;;3.20;99.90;;;;;;5038945;28;20051;-73
2022/11/19 04:38:14;;;;;;;39.53;22.73;;;3.20;99.90;;;;;;5041420;28;20079;-74
2022/11/19 04:40:41;;;;;;;40.28;22.42;;;3.10;99.90;;;;;;5012962;28;20120;-74
2022/11/19 04:43:06;;;;;;;42.42;24.48;;;3.10;99.90;;;;;;5031169;28;20465;-74
2022/11/19 04:45:32;;;;;;;41.15;24.45;;;3.10;99.90;;;;;;5039378;28;20164;-74
2022/11/19 04:47:57;;;;;;;39.28;22.77;;;3.00;99.90;;;;;;5036979;28;20053;-74
2022/11/19 04:50:23;;;;;;;38.80;22.27;;;3.00;99.90;;;;;;5028092;28;20113;-73
2022/11/19 04:52:48;;;;;;;41.90;23.80;;;3.00;99.90;;;;;;5031379;28;20037;-74
2022/11/19 04:55:14;;;;;;;41.15;22.55;;;2.90;99.90;;;;;;5029613;28;20036;-74
2022/11/19 04:57:39;;;;;;;40.13;22.75;;;2.90;99.90;;;;;;5026989;28;20549;-74
2022/11/19 05:00:06;;;;;;;37.83;21.88;;;2.90;99.90;;;;;;5030536;28;20036;-74
2022/11/19 05:02:32;;;;;;;37.42;20.88;;;2.90;99.90;;;;;;5041394;28;20398;-73
2022/11/19 05:04:57;;;;;;;39.78;22.35;;;2.90;99.90;;;;;;5031292;28;20033;-73
2022/11/19 05:07:23;;;;;;;42.22;24.35;;;2.90;99.90;;;;;;5030129;28;20101;-74
2022/11/19 05:09:48;;;;;;;43.03;24.35;;;2.90;99.90;;;;;;5035209;28;20112;-73
2022/11/19 05:12:14;;;;;;;45.65;24.02;;;2.90;99.90;;;;;;5030741;28;20030;-74
2022/11/19 05:14:39;;;;;;;39.42;22.15;;;2.90;99.90;;;;;;5028973;28;20113;-73
2022/11/19 05:17:05;;;;;;;45.20;24.35;;;2.90;99.90;;;;;;5028818;28;20426;-74
2022/11/19 05:19:30;;;;;;;44.97;25.65;;;2.90;99.90;;;;;;5031688;28;20060;-74
2022/11/19 05:21:56;;;;;;;44.85;24.92;;;2.90;99.90;;;;;;5018834;28;20092;-74
2022/11/19 05:24:21;;;;;;;45.05;24.90;;;2.90;99.90;;;;;;5028760;28;20121;-74
2022/11/19 05:26:47;;;;;;;46.45;24.33;;;2.80;99.90;;;;;;5030385;28;20116;-74
2022/11/19 05:29:12;;;;;;;41.47;23.02;;;2.80;99.90;;;;;;5028303;28;20092;-74
2022/11/19 05:31:38;;;;;;;48.10;26.27;;;2.80;99.90;;;;;;5029484;28;20512;-74
2022/11/19 05:34:03;;;;;;;49.88;26.52;;;2.80;99.90;;;;;;5032308;28;20017;-74
2022/11/19 05:36:29;;;;;;;45.90;25.10;;;2.80;99.90;;;;;;5025984;28;20018;-73
2022/11/19 05:38:54;;;;;;;48.03;24.48;;;2.80;99.90;;;;;;5029138;28;20399;-74
2022/11/19 05:41:20;;;;;;;49.20;27.02;;;2.80;99.90;;;;;;5030637;28;20025;-74
2022/11/19 05:43:45;;;;;;;47.13;25.67;;;2.80;99.90;;;;;;5013602;28;20048;-74
2022/11/19 05:46:11;;;;;;;46.50;25.85;;;2.70;99.90;;;;;;5030634;28;20032;-73
2022/11/19 05:48:37;;;;;;;45.78;25.88;;;2.70;99.90;;;;;;5030295;28;20072;-73
2022/11/19 05:51:02;;;;;;;48.33;26.45;;;2.70;99.90;;;;;;5034751;28;20108;-74
2022/11/19 05:53:28;;;;;;;44.65;25.02;;;2.70;99.90;;;;;;5015077;28;20390;-75
2022/11/19 05:55:53;;;;;;;43.75;24.65;;;2.70;99.90;;;;;;5033934;28;20037;-74
2022/11/19 05:58:19;;;;;;;48.25;26.85;;;2.70;99.90;;;;;;5030279;28;20025;-74
2022/11/19 06:00:45;;;;;;;44.08;23.88;;;2.70;99.90;;;;;;5030674;28;20033;-73
2022/11/19 06:03:10;;;;;;;42.15;24.58;;;2.60;99.90;;;;;;5020279;28;20045;-74
2022/11/19 06:05:36;;;;;;;44.03;24.83;;;2.60;99.90;;;;;;5019354;28;20034;-74
2022/11/19 06:08:01;;;;;;;46.42;25.27;;;2.60;99.90;;;;;;5024382;28;20441;-74
2022/11/19 06:10:27;;;;;;;48.70;26.27;;;2.60;99.90;;;;;;5035266;28;20040;-74
2022/11/19 06:12:52;;;;;;;43.20;23.25;;;2.60;99.90;;;;;;5028527;28;20022;-74
2022/11/19 06:15:18;;;;;;;50.83;26.40;;;2.60;99.90;;;;;;5030801;28;20026;-74
2022/11/19 06:17:43;;;;;;;46.53;24.50;;;2.60;99.90;;;;;;5032955;28;20030;-74
2022/11/19 06:20:10;;;;;;;49.75;26.90;;;2.60;99.90;;;;;;5018900;28;20026;-74
2022/11/19 06:22:36;;;;;;;47.78;26.38;;;2.60;99.90;;;;;;5034466;28;20027;-74
2022/11/19 06:25:03;;;;;;;42.38;23.88;;;2.60;99.90;;;;;;5033188;28;20044;-74
2022/11/19 06:27:29;;;;;;;49.58;27.15;;;2.60;99.90;;;;;;5036329;28;20036;-74
2022/11/19 06:29:54;;;;;;;43.35;24.02;;;2.60;99.90;;;;;;5033122;28;20033;-73
2022/11/19 06:32:20;;;;;;;45.72;25.17;;;2.60;99.90;;;;;;5029138;28;20041;-74
2022/11/19 06:34:45;;;;;;;45.75;25.40;;;2.60;99.90;;;;;;5037632;28;20029;-74
2022/11/19 06:37:11;;;;;;;41.88;23.92;;;2.60;99.90;;;;;;5036153;28;20033;-75
2022/11/19 06:39:36;;;;;;;46.95;26.48;;;2.50;99.90;;;;;;5033240;28;20771;-73
2022/11/19 06:44:46;;;;;;;47.17;24.95;;;2.60;99.90;;;;;;5046159;28;20122;-75
2022/11/19 06:47:12;;;;;;;44.97;25.27;;;2.50;99.90;;;;;;5031683;28;20483;-74
2022/11/19 06:49:37;;;;;;;42.83;23.75;;;2.50;99.90;;;;;;5034523;28;20037;-73
2022/11/19 06:52:03;;;;;;;41.10;24.00;;;2.50;99.90;;;;;;5033375;28;20387;-74
2022/11/19 06:54:29;;;;;;;45.90;25.67;;;2.50;99.90;;;;;;5044342;28;20033;-74
2022/11/19 06:56:54;;;;;;;47.22;25.98;;;2.50;99.90;;;;;;5033103;28;20471;-74
2022/11/19 06:59:20;;;;;;;42.50;22.80;;;2.60;99.90;;;;;;5032090;28;20052;-74
2022/11/19 07:01:45;;;;;;;42.15;24.52;;;2.60;99.90;;;;;;5033428;28;20029;-73
2022/11/19 07:04:11;;;;;;;42.13;24.20;;;2.50;99.90;;;;;;5011431;28;20029;-74
2022/11/19 07:06:36;;;;;;;46.75;24.52;;;2.50;99.90;;;;;;5029586;28;20059;-74
2022/11/19 07:09:02;;;;;;;41.78;23.10;;;2.50;99.90;;;;;;5030111;28;20495;-74
2022/11/19 07:11:28;;;;;;;42.75;23.85;;;2.40;99.90;;;;;;5034259;28;20036;-74
2022/11/19 07:13:57;;;;;;;45.40;23.98;;;2.40;99.90;;;;;;5031183;28;20022;-74
2022/11/19 07:16:37;;;;;;;44.80;24.60;;;2.30;99.90;;;;;;5027055;28;20025;-74
2022/11/19 07:19:05;;;;;;;42.00;23.85;;;2.30;99.90;;;;;;5031164;28;20030;-74
2022/11/19 07:21:31;;;;;;;39.60;21.40;;;2.30;99.90;;;;;;5011328;28;20017;-73
2022/11/19 07:23:59;;;;;;;41.80;23.23;;;2.30;99.90;;;;;;5011278;28;20038;-74
2022/11/19 07:26:25;;;;;;;45.47;23.75;;;2.30;99.90;;;;;;5034231;28;20040;-75
2022/11/19 07:28:51;;;;;;;44.80;24.33;;;2.30;99.90;;;;;;5029944;28;20029;-75
2022/11/19 07:31:17;;;;;;;43.50;23.50;;;2.20;99.90;;;;;;5024091;28;20049;-75
2022/11/19 07:33:43;;;;;;;42.67;23.65;;;2.20;99.90;;;;;;5039667;28;20035;-75
2022/11/19 07:36:10;;;;;;;43.90;24.27;;;2.20;99.90;;;;;;5030029;28;20037;-75
2022/11/19 07:38:37;;;;;;;49.28;24.67;;;2.20;99.90;;;;;;5038129;28;20073;-74
2022/11/19 07:42:47;;;;;;;38.90;21.25;;;2.20;99.90;;;;;;5032524;28;20430;-75
2022/11/19 07:43:52;;;;;;;44.10;24.52;;;2.20;99.90;;;;;;5031239;28;20090;-75
2022/11/19 07:46:18;;;;;;;45.33;23.30;;;2.20;99.90;;;;;;5011019;28;20034;-75
2022/11/19 07:48:43;;;;;;;44.92;25.02;;;2.10;99.90;;;;;;5041235;28;20037;-75
2022/11/19 07:51:09;;;;;;;42.17;22.45;;;2.10;99.90;;;;;;5043517;28;20097;-75
2022/11/19 07:53:34;;;;;;;42.80;23.88;;;2.10;99.90;;;;;;5021162;28;20507;-75
2022/11/19 07:56:00;;;;;;;40.42;22.42;;;2.00;99.90;;;;;;5025410;28;20167;-74
2022/11/19 07:58:25;;;;;;;42.22;23.63;;;2.00;99.90;;;;;;5006764;28;20025;-75
2022/11/19 08:00:51;;;;;;;39.67;21.42;;;2.00;99.90;;;;;;5015567;28;20034;-75
2022/11/19 08:03:18;;;;;;;41.72;22.17;;;2.00;99.90;;;;;;5018970;28;20053;-74
2022/11/19 08:05:43;;;;;;;43.97;23.20;;;1.90;99.90;;;;;;5030697;28;20025;-74
2022/11/19 08:08:09;;;;;;;39.85;21.73;;;1.90;99.90;;;;;;5010722;28;20029;-74
2022/11/19 08:10:35;;;;;;;42.40;22.55;;;2.00;99.90;;;;;;5025165;28;20076;-74
2022/11/19 08:13:04;;;;;;;42.35;23.13;;;2.00;99.90;;;;;;5027034;28;20057;-74
2022/11/19 08:15:31;;;;;;;39.03;20.98;;;2.00;99.90;;;;;;5029854;28;20029;-73
2022/11/19 08:18:12;;;;;;;41.83;22.63;;;2.00;99.90;;;;;;5004536;28;20056;-73
2022/11/19 08:20:39;;;;;;;44.60;22.73;;;2.00;99.90;;;;;;5022610;28;20033;-74
2022/11/19 08:23:05;;;;;;;39.00;21.88;;;2.10;99.90;;;;;;5027769;28;20063;-74
2022/11/19 08:25:31;;;;;;;38.67;20.95;;;2.10;99.90;;;;;;5029274;28;20068;-74
2022/11/19 08:27:56;;;;;;;40.28;22.80;;;2.20;99.90;;;;;;5023918;28;20408;-74
2022/11/19 08:30:22;;;;;;;38.30;21.40;;;2.20;99.90;;;;;;5021224;28;20053;-74
2022/11/19 08:32:48;;;;;;;44.17;22.98;;;2.20;99.90;;;;;;5028171;28;20034;-75
2022/11/19 08:35:13;;;;;;;40.58;20.88;;;2.20;99.90;;;;;;5026373;28;20068;-73
2022/11/19 08:37:39;;;;;;;35.92;19.58;;;2.30;99.90;;;;;;5016351;28;20113;-75
2022/11/19 08:40:05;;;;;;;36.00;19.77;;;2.30;99.90;;;;;;5022823;28;20029;-75
2022/11/19 08:45:14;;;;;;;41.25;21.08;;;2.30;99.90;;;;;;5023472;28;20411;-75
2022/11/19 08:47:40;;;;;;;38.30;20.17;;;2.40;99.90;;;;;;5030373;28;20025;-74
2022/11/19 08:50:05;;;;;;;39.60;20.77;;;2.40;99.90;;;;;;5016315;28;20026;-75
2022/11/19 08:52:31;;;;;;;36.70;21.10;;;2.30;99.90;;;;;;5028644;28;20056;-75
2022/11/19 08:54:56;;;;;;;38.95;20.38;;;2.30;99.90;;;;;;5027790;28;20411;-75
2022/11/19 08:57:22;;;;;;;39.38;20.73;;;2.30;99.90;;;;;;5029946;28;20021;-75
2022/11/19 08:59:48;;;;;;;37.83;20.65;;;2.30;99.90;;;;;;5031130;28;20087;-75
2022/11/19 09:02:13;;;;;;;36.70;20.02;;;2.20;99.90;;;;;;5034785;28;20021;-74
2022/11/19 09:04:40;;;;;;;37.30;19.73;;;2.20;99.90;;;;;;5029725;28;20116;-75
2022/11/19 09:07:05;;;;;;;39.80;20.10;;;2.10;99.90;;;;;;5029989;28;20365;-75
2022/11/19 09:09:31;;;;;;;34.58;19.85;;;2.00;99.90;;;;;;5030823;28;20041;-75
2022/11/19 09:11:57;;;;;;;37.28;20.08;;;1.90;99.90;;;;;;5033823;28;20508;-75
2022/11/19 09:14:22;;;;;;;36.70;20.42;;;1.80;99.90;;;;;;5030084;28;20041;-75
2022/11/19 09:16:48;;;;;;;38.00;20.25;;;1.80;99.90;;;;;;5017005;28;20026;-75
2022/11/19 09:19:13;;;;;;;38.65;20.75;;;1.70;99.90;;;;;;5030925;28;20029;-75
2022/11/19 09:21:39;;;;;;;38.85;20.92;;;1.70;99.90;;;;;;5026849;28;20467;-75
2022/11/19 09:24:05;;;;;;;36.25;19.50;;;1.60;99.90;;;;;;5033608;28;20041;-75
2022/11/19 09:26:30;;;;;;;32.55;18.48;;;1.60;99.90;;;;;;5033678;28;20399;-75
2022/11/19 09:28:56;;;;;;;38.00;20.63;;;1.70;99.90;;;;;;5027741;28;20065;-74
2022/11/19 09:31:21;;;;;;;33.13;17.50;;;1.70;99.90;;;;;;5044451;28;20069;-74
2022/11/19 09:33:50;;;;;;;31.90;18.17;;;1.80;99.90;;;;;;5034559;28;20037;-75
2022/11/19 09:36:17;;;;;;;34.58;18.55;;;1.80;99.90;;;;;;5016271;28;20336;-75
2022/11/19 09:38:43;;;;;;;30.00;16.17;;;1.90;99.90;;;;;;5032176;28;20033;-75
2022/11/19 09:41:31;;;;;;;33.92;18.35;;;1.90;99.90;;;;;;5034138;28;20033;-75
2022/11/19 09:44:18;;;;;;;36.15;19.25;;;2.00;99.90;;;;;;5034117;28;20121;-74
2022/11/19 09:47:08;;;;;;;34.03;18.30;;;2.00;99.90;;;;;;5026423;28;20084;-75
2022/11/19 09:49:40;;;;;;;33.75;18.15;;;2.00;99.90;;;;;;5031418;28;20033;-75
2022/11/19 09:52:12;;;;;;;30.02;17.60;;;2.00;99.90;;;;;;5032621;28;20025;-75
2022/11/19 09:54:45;;;;;;;33.28;18.25;;;2.00;99.90;;;;;;5034232;28;20038;-75
2022/11/19 09:57:15;;;;;;;36.55;18.27;;;2.10;99.90;;;;;;5033475;28;20365;-75
2022/11/19 09:59:41;;;;;;;28.55;17.35;;;2.10;99.90;;;;;;5032817;28;20491;-74
2022/11/19 10:02:18;;;;;;;31.98;18.15;;;2.10;99.90;;;;;;5032391;28;20060;-75
2022/11/19 10:04:45;;;;;;;31.70;17.17;;;2.10;99.90;;;;;;5033996;28;20116;-74
2022/11/19 10:07:47;;;;;;;32.22;16.67;;;2.00;99.90;;;;;;5016521;28;20025;-75
2022/11/19 10:10:27;;;;;;;29.23;15.90;;;2.10;99.90;;;;;;5033492;28;20450;-75
2022/11/19 10:13:35;;;;;;;28.10;14.38;;;2.10;99.90;;;;;;5015090;28;20037;-75
2022/11/19 10:16:30;;;;;;;28.55;15.73;;;2.10;99.90;;;;;;5027387;28;20022;-75
2022/11/19 10:19:18;;;;;;;26.52;15.88;;;2.00;99.90;;;;;;5031039;28;20017;-75
2022/11/19 10:22:12;;;;;;;29.10;15.73;;;2.00;99.90;;;;;;5030535;28;20055;-75
2022/11/19 10:25:04;;;;;;;29.33;15.43;;;2.00;99.90;;;;;;5024667;28;20075;-75
2022/11/19 10:27:49;;;;;;;25.10;14.23;;;2.00;99.90;;;;;;5031177;28;20025;-75
2022/11/19 10:30:23;;;;;;;27.08;15.60;;;2.00;99.90;;;;;;5019382;28;20050;-75
2022/11/19 10:33:02;;;;;;;27.02;15.00;;;2.10;99.90;;;;;;5027135;28;20056;-75
2022/11/19 10:36:01;;;;;;;23.55;13.43;;;2.10;99.90;;;;;;5026722;28;20112;-74
2022/11/19 10:38:59;;;;;;;25.15;14.20;;;2.10;99.90;;;;;;4992600;28;20487;-75
2022/11/19 10:41:41;;;;;;;24.27;14.30;;;2.20;99.90;;;;;;5027277;28;20033;-74
2022/11/19 10:44:39;;;;;;;27.30;14.50;;;2.30;99.90;;;;;;5025502;28;20080;-74
2022/11/19 10:47:43;;;;;;;25.52;15.07;;;2.30;99.90;;;;;;5025072;28;20502;-74
2022/11/19 10:50:19;;;;;;;23.95;14.00;;;2.40;99.90;;;;;;5031966;28;20104;-75
2022/11/19 10:53:07;;;;;;;24.10;14.18;;;2.60;99.90;;;;;;5027319;28;20406;-75
2022/11/19 10:55:42;;;;;;;25.42;14.52;;;2.60;99.90;;;;;;5026578;28;20129;-75
2022/11/19 10:58:29;;;;;;;27.90;14.43;;;2.70;99.90;;;;;;5026311;28;20040;-75
2022/11/19 11:00:57;;;;;;;24.52;14.35;;;2.70;99.90;;;;;;5019240;28;20034;-75
2022/11/19 11:03:42;;;;;;;23.27;13.15;;;2.70;99.90;;;;;;5029877;28;20549;-75
2022/11/19 11:06:09;;;;;;;25.45;13.88;;;2.80;99.90;;;;;;5021305;28;20040;-75
2022/11/19 11:08:49;;;;;;;22.48;13.25;;;2.90;99.90;;;;;;5029269;28;20064;-75
2022/11/19 11:17:05;;;;;;;21.30;12.07;;;3.10;99.90;;;;;;5030145;28;20041;-75
2022/11/19 11:19:32;;;;;;;25.50;13.95;;;3.20;99.90;;;;;;5032588;28;20475;-75
2022/11/19 11:21:58;;;;;;;23.67;13.60;;;3.30;99.90;;;;;;5032513;28;20034;-75
2022/11/19 11:24:32;;;;;;;22.95;13.50;;;3.40;99.90;;;;;;5030827;28;20439;-75
2022/11/19 11:27:32;;;;;;;20.52;12.70;;;3.50;99.90;;;;;;5029337;28;20483;-75
2022/11/19 11:30:24;;;;;;;19.45;11.90;;;3.60;99.90;;;;;;4994909;28;20103;-74
2022/11/19 11:32:49;;;;;;;20.90;12.68;;;3.50;99.90;;;;;;5029607;28;20510;-74
2022/11/19 11:35:33;;;;;;;19.02;11.93;;;3.40;99.90;;;;;;5032611;28;20025;-75
2022/11/19 11:37:59;;;;;;;22.65;12.85;;;3.40;99.90;;;;;;5014360;28;20386;-74
2022/11/19 11:40:25;;;;;;;20.35;11.88;;;3.40;99.90;;;;;;5032315;28;20060;-75
2022/11/19 11:42:52;;;;;;;22.70;12.98;;;3.40;99.90;;;;;;5030988;28;20049;-75
2022/11/19 11:45:31;;;;;;;17.98;11.43;;;3.40;99.90;;;;;;5031049;28;20048;-75
2022/11/19 11:48:02;;;;;;;19.50;11.98;;;3.40;99.90;;;;;;5031406;28;20059;-75
2022/11/19 11:50:28;;;;;;;18.50;11.60;;;3.40;99.90;;;;;;5032260;28;20137;-75
2022/11/19 11:52:56;;;;;;;18.75;11.23;;;3.40;99.90;;;;;;5031725;28;20515;-75
2022/11/19 11:55:27;;;;;;;17.63;11.32;;;3.30;99.90;;;;;;5031662;28;20026;-75
2022/11/19 11:58:02;;;;;;;18.35;10.80;;;3.20;99.90;;;;;;5013944;28;20138;-74
2022/11/19 12:01:00;;;;;;;14.35;8.23;;;3.10;99.90;;;;;;5020414;28;20030;-74
2022/11/19 12:03:25;;;;;;;19.40;11.50;;;3.00;99.90;;;;;;4988298;28;20065;-74
2022/11/19 12:06:12;;;;;;;18.90;12.32;;;2.80;99.90;;;;;;5031510;28;20385;-74
2022/11/19 12:08:43;;;;;;;17.55;10.40;;;2.80;99.90;;;;;;5031594;28;20052;-74
2022/11/19 12:11:20;;;;;;;19.02;11.18;;;2.60;99.90;;;;;;5032870;28;20025;-74
2022/11/19 12:14:04;;;;;;;16.63;10.45;;;2.70;99.90;;;;;;5030929;28;20552;-75
2022/11/19 12:16:45;;;;;;;18.48;11.10;;;2.70;99.90;;;;;;5031788;28;20112;-74
2022/11/19 12:19:41;;;;;;;19.73;11.55;;;2.70;99.90;;;;;;5026670;28;20108;-74
2022/11/19 12:22:56;;;;;;;19.42;11.00;;;2.80;99.90;;;;;;5028576;28;20025;-74
2022/11/19 12:25:46;;;;;;;17.80;9.98;;;2.70;99.90;;;;;;4992818;28;20056;-74
2022/11/19 12:28:17;;;;;;;18.83;11.57;;;2.60;99.90;;;;;;5030565;28;20048;-74
2022/11/19 12:31:09;;;;;;;17.65;11.07;;;2.60;99.90;;;;;;5030515;28;20449;-74
2022/11/19 12:34:00;;;;;;;17.65;10.38;;;2.60;99.90;;;;;;5014055;28;20049;-74
2022/11/19 12:36:55;;;;;;;18.17;10.77;;;2.60;99.90;;;;;;5019478;28;20136;-75
2022/11/19 12:39:41;;;;;;;18.15;11.23;;;2.60;99.90;;;;;;5014104;28;20367;-74
2022/11/19 12:42:31;;;;;;;17.08;9.95;;;2.50;99.90;;;;;;5030821;28;20055;-72
2022/11/19 12:45:35;;;;;;;17.70;9.73;;;2.50;99.90;;;;;;5031673;28;20029;-74
2022/11/19 12:48:20;;;;;;;15.20;9.88;;;2.60;99.90;;;;;;5026490;28;20033;-74
2022/11/19 12:51:04;;;;;;;17.00;10.02;;;2.60;99.90;;;;;;5028656;28;20029;-74
2022/11/19 12:53:53;;;;;;;16.63;9.50;;;2.60;99.90;;;;;;5031314;28;20100;-74
2022/11/19 12:56:53;;;;;;;16.52;9.38;;;2.60;99.90;;;;;;5031668;28;20032;-74
2022/11/19 12:59:34;;;;;;;17.38;10.30;;;2.60;99.90;;;;;;5023074;28;20060;-74
2022/11/19 13:02:06;;;;;;;17.58;10.15;;;2.70;99.90;;;;;;5020567;28;20108;-74
2022/11/19 13:04:44;;;;;;;18.75;9.18;;;2.80;99.90;;;;;;5028072;28;20456;-73
2022/11/19 13:07:34;;;;;;;18.35;10.05;;;2.80;99.90;;;;;;5025306;28;20025;-74
2022/11/19 13:10:22;;;;;;;18.23;10.38;;;2.90;99.90;;;;;;5031304;28;20037;-74
2022/11/19 13:12:53;;;;;;;16.80;9.85;;;3.00;99.90;;;;;;5011950;28;20152;-74
2022/11/19 13:15:23;;;;;;;15.32;9.90;;;3.10;99.90;;;;;;5027726;28;20025;-74
2022/11/19 13:17:55;;;;;;;17.23;10.30;;;3.10;99.90;;;;;;5030786;28;20600;-74
2022/11/19 13:20:26;;;;;;;15.10;9.33;;;3.10;99.90;;;;;;5029990;28;20026;-74
2022/11/19 13:22:57;;;;;;;17.02;10.32;;;3.10;99.90;;;;;;5016246;28;20033;-75
2022/11/19 13:25:38;;;;;;;15.23;10.25;;;3.00;99.90;;;;;;5031982;28;20038;-74
2022/11/19 13:28:19;;;;;;;12.80;8.98;;;3.10;99.90;;;;;;5016317;28;20024;-74
2022/11/19 13:30:47;;;;;;;14.98;9.02;;;3.10;99.90;;;;;;5030448;28;20057;-74
2022/11/19 13:33:25;;;;;;;14.13;8.77;;;3.20;99.90;;;;;;5027180;28;20033;-74